sensor_id;sensor_type;location;lat;lon;timestamp;temperature;humidity
60860;DHT22;46694;54.382;9.708;2024-03-23T00:54:56;6.80;99.90
60860;DHT22;46694;54.382;9.708;2024-03-23T00:57:21;6.80;99.90
60860;DHT22;46694;54.382;9.708;2024-03-23T00:59:47;6.90;99.90
60860;DHT22;46694;54.382;9.708;2024-03-23T01:02:13;6.80;99.90
60860;DHT22;46694;54.382;9.708;2024-03-23T01:04:39;6.80;99.90
60860;DHT22;46694;54.382;9.708;2024-03-23T01:07:04;6.70;99.90
60860;DHT22;46694;54.382;9.708;2024-03-23T01:09:30;6.70;99.90
60860;DHT22;46694;54.382;9.708;2024-03-23T01:11:56;6.70;99.90
60860;DHT22;46694;54.382;9.708;2024-03-23T01:14:22;6.70;99.90
60860;DHT22;46694;54.382;9.708;2024-03-23T01:16:48;6.70;99.90
60860;DHT22;46694;54.382;9.708;2024-03-23T01:19:13;6.70;99.90
60860;DHT22;46694;54.382;9.708;2024-03-23T01:21:39;6.70;99.90
60860;DHT22;46694;54.382;9.708;2024-03-23T01:24:05;6.70;99.90
60860;DHT22;46694;54.382;9.708;2024-03-23T01:26:32;6.70;99.90
60860;DHT22;46694;54.382;9.708;2024-03-23T01:28:57;6.70;99.90
60860;DHT22;46694;54.382;9.708;2024-03-23T01:31:23;6.70;99.90
60860;DHT22;46694;54.382;9.708;2024-03-23T01:33:49;6.70;99.90
60860;DHT22;46694;54.382;9.708;2024-03-23T01:36:15;6.60;99.90
60860;DHT22;46694;54.382;9.708;2024-03-23T01:38:41;6.60;99.90
60860;DHT22;46694;54.382;9.708;2024-03-23T01:41:07;6.60;99.90
60860;DHT22;46694;54.382;9.708;2024-03-23T01:43:32;6.60;99.90
60860;DHT22;46694;54.382;9.708;2024-03-23T01:45:58;6.60;99.90
60860;DHT22;46694;54.382;9.708;2024-03-23T01:48:24;6.60;99.90
60860;DHT22;46694;54.382;9.708;2024-03-23T01:50:50;6.60;99.90
60860;DHT22;46694;54.382;9.708;2024-03-23T01:53:16;6.60;99.90
60860;DHT22;46694;54.382;9.708;2024-03-23T01:55:43;6.50;99.90
60860;DHT22;46694;54.382;9.708;2024-03-23T01:58:09;6.50;99.90
60860;DHT22;46694;54.382;9.708;2024-03-23T02:00:35;6.50;99.90
60860;DHT22;46694;54.382;9.708;2024-03-23T02:03:01;6.50;99.90
60860;DHT22;46694;54.382;9.708;2024-03-23T02:05:27;6.50;99.90
60860;DHT22;46694;54.382;9.708;2024-03-23T02:07:53;6.40;99.90
60860;DHT22;46694;54.382;9.708;2024-03-23T02:10:19;6.40;99.90
60860;DHT22;46694;54.382;9.708;2024-03-23T02:12:45;6.40;99.90
60860;DHT22;46694;54.382;9.708;2024-03-23T02:15:10;6.40;99.90
60860;DHT22;46694;54.382;9.708;2024-03-23T02:17:36;6.40;99.90
60860;DHT22;46694;54.382;9.708;2024-03-23T02:20:03;6.40;99.90
60860;DHT22;46694;54.382;9.708;2024-03-23T02:22:38;6.40;99.90
60860;DHT22;46694;54.382;9.708;2024-03-23T02:25:05;6.40;99.90
60860;DHT22;46694;54.382;9.708;2024-03-23T02:27:31;6.40;99.90
60860;DHT22;46694;54.382;9.708;2024-03-23T02:29:58;6.30;99.90
60860;DHT22;46694;54.382;9.708;2024-03-23T02:32:24;6.30;99.90
60860;DHT22;46694;54.382;9.708;2024-03-23T02:34:50;6.40;99.90
60860;DHT22;46694;54.382;9.708;2024-03-23T02:37:16;6.40;99.90
60860;DHT22;46694;54.382;9.708;2024-03-23T02:39:41;6.30;99.90
60860;DHT22;46694;54.382;9.708;2024-03-23T02:42:07;6.30;99.90
60860;DHT22;46694;54.382;9.708;2024-03-23T02:44:33;6.30;99.90
60860;DHT22;46694;54.382;9.708;2024-03-23T02:46:59;6.30;99.90
60860;DHT22;46694;54.382;9.708;2024-03-23T02:49:25;6.30;99.90
60860;DHT22;46694;54.382;9.708;2024-03-23T02:51:52;6.30;99.90
60860;DHT22;46694;54.382;9.708;2024-03-23T02:54:18;6.30;99.90
60860;DHT22;46694;54.382;9.708;2024-03-23T02:56:43;6.30;99.90
60860;DHT22;46694;54.382;9.708;2024-03-23T02:59:09;6.30;99.90
60860;DHT22;46694;54.382;9.708;2024-03-23T03:01:35;6.30;99.90
60860;DHT22;46694;54.382;9.708;2024-03-23T03:04:01;6.30;99.90
60860;DHT22;46694;54.382;9.708;2024-03-23T03:06:29;6.30;99.90
60860;DHT22;46694;54.382;9.708;2024-03-23T03:08:55;6.30;99.90
60860;DHT22;46694;54.382;9.708;2024-03-23T03:11:21;6.20;99.90
60860;DHT22;46694;54.382;9.708;2024-03-23T03:13:47;6.20;99.90
60860;DHT22;46694;54.382;9.708;2024-03-23T03:16:13;6.20;99.90
60860;DHT22;46694;54.382;9.708;2024-03-23T03:18:39;6.20;99.90
60860;DHT22;46694;54.382;9.708;2024-03-23T03:21:08;6.20;99.90
60860;DHT22;46694;54.382;9.708;2024-03-23T03:23:39;6.20;99.90
60860;DHT22;46694;54.382;9.708;2024-03-23T03:26:05;6.10;99.90
60860;DHT22;46694;54.382;9.708;2024-03-23T03:28:32;6.10;99.90
60860;DHT22;46694;54.382;9.708;2024-03-23T03:30:59;6.10;99.90
60860;DHT22;46694;54.382;9.708;2024-03-23T03:33:29;6.10;99.90
60860;DHT22;46694;54.382;9.708;2024-03-23T03:35:55;6.10;99.90
60860;DHT22;46694;54.382;9.708;2024-03-23T03:38:21;6.10;99.90
60860;DHT22;46694;54.382;9.708;2024-03-23T03:40:47;6.10;99.90
60860;DHT22;46694;54.382;9.708;2024-03-23T03:43:13;6.10;99.90
60860;DHT22;46694;54.382;9.708;2024-03-23T03:45:39;6.10;99.90
60860;DHT22;46694;54.382;9.708;2024-03-23T03:48:06;6.10;99.90
60860;DHT22;46694;54.382;9.708;2024-03-23T03:50:32;6.10;99.90
60860;DHT22;46694;54.382;9.708;2024-03-23T03:52:58;6.10;99.90
60860;DHT22;46694;54.382;9.708;2024-03-23T03:55:23;6.00;99.90
60860;DHT22;46694;54.382;9.708;2024-03-23T03:57:49;6.00;99.90
60860;DHT22;46694;54.382;9.708;2024-03-23T04:00:15;6.00;99.90
60860;DHT22;46694;54.382;9.708;2024-03-23T04:02:41;6.00;99.90
60860;DHT22;46694;54.382;9.708;2024-03-23T04:05:07;6.00;99.90
60860;DHT22;46694;54.382;9.708;2024-03-23T04:07:33;6.00;99.90
60860;DHT22;46694;54.382;9.708;2024-03-23T04:09:59;6.00;99.90
60860;DHT22;46694;54.382;9.708;2024-03-23T04:12:25;5.90;99.90
60860;DHT22;46694;54.382;9.708;2024-03-23T04:14:51;5.90;99.90
60860;DHT22;46694;54.382;9.708;2024-03-23T04:17:17;5.90;99.90
60860;DHT22;46694;54.382;9.708;2024-03-23T04:19:44;5.90;99.90
60860;DHT22;46694;54.382;9.708;2024-03-23T04:22:10;5.90;99.90
60860;DHT22;46694;54.382;9.708;2024-03-23T04:24:35;5.90;99.90
60860;DHT22;46694;54.382;9.708;2024-03-23T04:27:01;5.90;99.90
60860;DHT22;46694;54.382;9.708;2024-03-23T04:29:31;5.80;99.90
60860;DHT22;46694;54.382;9.708;2024-03-23T04:31:57;5.80;99.90
60860;DHT22;46694;54.382;9.708;2024-03-23T04:34:23;5.80;99.90
60860;DHT22;46694;54.382;9.708;2024-03-23T04:36:49;5.80;99.90
60860;DHT22;46694;54.382;9.708;2024-03-23T04:39:15;5.80;99.90
60860;DHT22;46694;54.382;9.708;2024-03-23T04:41:41;5.80;99.90
60860;DHT22;46694;54.382;9.708;2024-03-23T04:44:07;5.80;99.90
60860;DHT22;46694;54.382;9.708;2024-03-23T04:46:33;5.80;99.90
60860;DHT22;46694;54.382;9.708;2024-03-23T04:48:58;5.80;99.90
60860;DHT22;46694;54.382;9.708;2024-03-23T04:54:46;5.80;99.90
60860;DHT22;46694;54.382;9.708;2024-03-23T04:57:12;5.70;99.90
60860;DHT22;46694;54.382;9.708;2024-03-23T04:59:38;5.70;99.90
60860;DHT22;46694;54.382;9.708;2024-03-23T05:02:04;5.70;99.90
60860;DHT22;46694;54.382;9.708;2024-03-23T05:04:29;5.80;99.90
60860;DHT22;46694;54.382;9.708;2024-03-23T05:06:55;5.80;99.90
60860;DHT22;46694;54.382;9.708;2024-03-23T05:09:21;5.80;99.90
60860;DHT22;46694;54.382;9.708;2024-03-23T05:11:47;5.80;99.90
60860;DHT22;46694;54.382;9.708;2024-03-23T05:14:13;5.70;99.90
60860;DHT22;46694;54.382;9.708;2024-03-23T05:16:39;5.70;99.90
60860;DHT22;46694;54.382;9.708;2024-03-23T05:19:06;5.70;99.90
60860;DHT22;46694;54.382;9.708;2024-03-23T05:21:32;5.70;99.90
60860;DHT22;46694;54.382;9.708;2024-03-23T05:23:57;5.70;99.90
60860;DHT22;46694;54.382;9.708;2024-03-23T05:26:23;5.70;99.90
60860;DHT22;46694;54.382;9.708;2024-03-23T05:28:49;5.70;99.90
60860;DHT22;46694;54.382;9.708;2024-03-23T05:31:25;5.70;99.90
60860;DHT22;46694;54.382;9.708;2024-03-23T05:33:58;5.70;99.90
60860;DHT22;46694;54.382;9.708;2024-03-23T05:36:23;5.70;99.90
60860;DHT22;46694;54.382;9.708;2024-03-23T05:38:50;5.70;99.90
60860;DHT22;46694;54.382;9.708;2024-03-23T05:41:16;5.70;99.90
60860;DHT22;46694;54.382;9.708;2024-03-23T05:43:42;5.70;99.90
60860;DHT22;46694;54.382;9.708;2024-03-23T05:46:07;5.70;99.90
60860;DHT22;46694;54.382;9.708;2024-03-23T05:48:34;5.70;99.90
60860;DHT22;46694;54.382;9.708;2024-03-23T05:51:00;5.70;99.90
60860;DHT22;46694;54.382;9.708;2024-03-23T05:53:26;5.70;99.90
60860;DHT22;46694;54.382;9.708;2024-03-23T05:55:59;5.70;99.90
60860;DHT22;46694;54.382;9.708;2024-03-23T05:58:26;5.70;99.90
60860;DHT22;46694;54.382;9.708;2024-03-23T06:01:00;5.70;99.90
60860;DHT22;46694;54.382;9.708;2024-03-23T06:03:28;5.70;99.90
60860;DHT22;46694;54.382;9.708;2024-03-23T06:05:54;5.70;99.90
60860;DHT22;46694;54.382;9.708;2024-03-23T06:08:21;5.80;99.90
60860;DHT22;46694;54.382;9.708;2024-03-23T06:10:47;5.70;99.90
60860;DHT22;46694;54.382;9.708;2024-03-23T06:13:14;5.80;99.90
60860;DHT22;46694;54.382;9.708;2024-03-23T06:15:39;5.80;99.90
60860;DHT22;46694;54.382;9.708;2024-03-23T06:18:06;5.80;99.90
60860;DHT22;46694;54.382;9.708;2024-03-23T06:20:33;5.80;99.90
60860;DHT22;46694;54.382;9.708;2024-03-23T06:23:02;5.90;99.90
60860;DHT22;46694;54.382;9.708;2024-03-23T06:25:29;5.90;99.90
60860;DHT22;46694;54.382;9.708;2024-03-23T06:27:55;6.00;99.90
60860;DHT22;46694;54.382;9.708;2024-03-23T06:30:21;6.10;99.90
60860;DHT22;46694;54.382;9.708;2024-03-23T06:32:47;6.20;99.90
60860;DHT22;46694;54.382;9.708;2024-03-23T06:35:13;6.30;99.90
60860;DHT22;46694;54.382;9.708;2024-03-23T06:37:39;6.50;99.90
60860;DHT22;46694;54.382;9.708;2024-03-23T06:40:07;6.70;99.90
60860;DHT22;46694;54.382;9.708;2024-03-23T06:42:35;6.80;99.90
60860;DHT22;46694;54.382;9.708;2024-03-23T06:45:02;6.90;99.90
60860;DHT22;46694;54.382;9.708;2024-03-23T06:47:30;7.00;99.90
60860;DHT22;46694;54.382;9.708;2024-03-23T06:49:56;7.10;99.90
60860;DHT22;46694;54.382;9.708;2024-03-23T06:52:22;7.10;99.90
60860;DHT22;46694;54.382;9.708;2024-03-23T06:54:48;7.10;99.90
60860;DHT22;46694;54.382;9.708;2024-03-23T06:57:13;7.10;99.90
60860;DHT22;46694;54.382;9.708;2024-03-23T06:59:39;7.10;99.90
60860;DHT22;46694;54.382;9.708;2024-03-23T07:02:08;7.20;99.90
60860;DHT22;46694;54.382;9.708;2024-03-23T07:04:34;7.20;99.90
60860;DHT22;46694;54.382;9.708;2024-03-23T07:07:01;7.30;99.90
60860;DHT22;46694;54.382;9.708;2024-03-23T07:09:28;7.30;99.90
60860;DHT22;46694;54.382;9.708;2024-03-23T07:11:56;7.40;99.90
60860;DHT22;46694;54.382;9.708;2024-03-23T07:14:23;7.50;99.90
60860;DHT22;46694;54.382;9.708;2024-03-23T07:16:50;7.60;99.90
60860;DHT22;46694;54.382;9.708;2024-03-23T07:19:19;7.80;99.90
60860;DHT22;46694;54.382;9.708;2024-03-23T07:21:45;8.00;99.90
60860;DHT22;46694;54.382;9.708;2024-03-23T07:24:11;8.10;99.90
60860;DHT22;46694;54.382;9.708;2024-03-23T07:26:37;8.20;99.90
60860;DHT22;46694;54.382;9.708;2024-03-23T07:29:04;8.40;99.90
60860;DHT22;46694;54.382;9.708;2024-03-23T07:31:30;8.40;99.90
60860;DHT22;46694;54.382;9.708;2024-03-23T07:33:56;8.60;99.90
60860;DHT22;46694;54.382;9.708;2024-03-23T07:36:22;8.80;99.90
60860;DHT22;46694;54.382;9.708;2024-03-23T07:38:48;8.90;99.90
60860;DHT22;46694;54.382;9.708;2024-03-23T07:41:18;9.00;99.90
60860;DHT22;46694;54.382;9.708;2024-03-23T07:43:45;9.00;99.90
60860;DHT22;46694;54.382;9.708;2024-03-23T07:46:12;9.00;99.90
60860;DHT22;46694;54.382;9.708;2024-03-23T07:49:12;9.10;99.90
60860;DHT22;46694;54.382;9.708;2024-03-23T07:55:19;9.20;99.90
60860;DHT22;46694;54.382;9.708;2024-03-23T07:57:44;9.20;99.90
60860;DHT22;46694;54.382;9.708;2024-03-23T08:00:11;9.20;99.90
60860;DHT22;46694;54.382;9.708;2024-03-23T08:02:38;9.10;99.90
60860;DHT22;46694;54.382;9.708;2024-03-23T08:05:04;9.10;99.90
60860;DHT22;46694;54.382;9.708;2024-03-23T08:07:31;9.00;99.90
60860;DHT22;46694;54.382;9.708;2024-03-23T08:09:57;8.70;99.90
60860;DHT22;46694;54.382;9.708;2024-03-23T08:12:24;8.40;99.90
60860;DHT22;46694;54.382;9.708;2024-03-23T08:14:50;8.10;99.90
60860;DHT22;46694;54.382;9.708;2024-03-23T08:17:16;7.80;99.90
60860;DHT22;46694;54.382;9.708;2024-03-23T08:19:42;7.70;99.90
60860;DHT22;46694;54.382;9.708;2024-03-23T08:22:07;7.50;99.90
60860;DHT22;46694;54.382;9.708;2024-03-23T08:24:34;7.40;99.90
60860;DHT22;46694;54.382;9.708;2024-03-23T08:27:00;7.30;99.90
60860;DHT22;46694;54.382;9.708;2024-03-23T08:29:26;7.30;99.90
60860;DHT22;46694;54.382;9.708;2024-03-23T08:31:52;7.20;99.90
60860;DHT22;46694;54.382;9.708;2024-03-23T08:34:18;7.20;99.90
60860;DHT22;46694;54.382;9.708;2024-03-23T08:36:43;7.10;99.90
60860;DHT22;46694;54.382;9.708;2024-03-23T08:39:09;7.10;99.90
60860;DHT22;46694;54.382;9.708;2024-03-23T08:41:35;7.00;99.90
60860;DHT22;46694;54.382;9.708;2024-03-23T08:44:01;6.80;99.90
60860;DHT22;46694;54.382;9.708;2024-03-23T08:46:26;6.70;99.90
60860;DHT22;46694;54.382;9.708;2024-03-23T08:48:53;6.50;99.90
60860;DHT22;46694;54.382;9.708;2024-03-23T08:51:18;6.30;99.90
60860;DHT22;46694;54.382;9.708;2024-03-23T08:53:45;6.30;99.90
60860;DHT22;46694;54.382;9.708;2024-03-23T08:56:11;6.30;99.90
60860;DHT22;46694;54.382;9.708;2024-03-23T08:58:38;6.30;99.90
60860;DHT22;46694;54.382;9.708;2024-03-23T09:01:07;6.30;99.90
60860;DHT22;46694;54.382;9.708;2024-03-23T09:03:34;6.30;99.90
60860;DHT22;46694;54.382;9.708;2024-03-23T09:06:10;6.30;99.90
60860;DHT22;46694;54.382;9.708;2024-03-23T09:08:37;6.40;99.90
60860;DHT22;46694;54.382;9.708;2024-03-23T09:11:11;6.40;99.90
60860;DHT22;46694;54.382;9.708;2024-03-23T09:13:38;6.50;99.90
60860;DHT22;46694;54.382;9.708;2024-03-23T09:16:05;6.50;99.90
60860;DHT22;46694;54.382;9.708;2024-03-23T09:18:32;6.60;99.90
60860;DHT22;46694;54.382;9.708;2024-03-23T09:20:59;6.60;99.90
60860;DHT22;46694;54.382;9.708;2024-03-23T09:23:25;6.70;99.90
60860;DHT22;46694;54.382;9.708;2024-03-23T09:25:51;6.80;99.90
60860;DHT22;46694;54.382;9.708;2024-03-23T09:28:17;6.90;99.90
60860;DHT22;46694;54.382;9.708;2024-03-23T09:30:43;7.20;99.90
60860;DHT22;46694;54.382;9.708;2024-03-23T09:33:09;7.80;99.90
60860;DHT22;46694;54.382;9.708;2024-03-23T09:35:38;8.20;99.90
60860;DHT22;46694;54.382;9.708;2024-03-23T09:38:04;8.80;99.90
60860;DHT22;46694;54.382;9.708;2024-03-23T09:40:33;9.20;99.90
60860;DHT22;46694;54.382;9.708;2024-03-23T09:42:59;9.40;99.90
60860;DHT22;46694;54.382;9.708;2024-03-23T09:45:28;9.40;99.90
60860;DHT22;46694;54.382;9.708;2024-03-23T09:47:55;9.20;99.90
60860;DHT22;46694;54.382;9.708;2024-03-23T09:50:21;9.20;99.90
60860;DHT22;46694;54.382;9.708;2024-03-23T09:52:48;9.30;99.90
60860;DHT22;46694;54.382;9.708;2024-03-23T09:55:14;9.30;99.90
60860;DHT22;46694;54.382;9.708;2024-03-23T09:57:41;9.20;99.90
60860;DHT22;46694;54.382;9.708;2024-03-23T10:00:07;9.00;99.90
60860;DHT22;46694;54.382;9.708;2024-03-23T10:02:35;9.00;99.90
60860;DHT22;46694;54.382;9.708;2024-03-23T10:05:02;9.20;99.90
60860;DHT22;46694;54.382;9.708;2024-03-23T10:07:29;9.60;99.90
60860;DHT22;46694;54.382;9.708;2024-03-23T10:09:55;9.80;99.90
60860;DHT22;46694;54.382;9.708;2024-03-23T10:12:24;10.00;99.90
60860;DHT22;46694;54.382;9.708;2024-03-23T10:14:50;10.20;99.90
60860;DHT22;46694;54.382;9.708;2024-03-23T10:17:21;10.50;99.90
60860;DHT22;46694;54.382;9.708;2024-03-23T10:19:52;10.70;99.90
60860;DHT22;46694;54.382;9.708;2024-03-23T10:22:22;10.90;99.90
60860;DHT22;46694;54.382;9.708;2024-03-23T10:24:50;11.00;99.90
60860;DHT22;46694;54.382;9.708;2024-03-23T10:27:18;11.00;99.90
60860;DHT22;46694;54.382;9.708;2024-03-23T10:29:48;10.80;99.90
60860;DHT22;46694;54.382;9.708;2024-03-23T10:32:16;10.70;99.90
60860;DHT22;46694;54.382;9.708;2024-03-23T10:34:43;10.50;99.90
60860;DHT22;46694;54.382;9.708;2024-03-23T10:37:10;10.40;99.90
60860;DHT22;46694;54.382;9.708;2024-03-23T10:39:37;10.30;99.90
60860;DHT22;46694;54.382;9.708;2024-03-23T10:42:13;10.30;99.90
60860;DHT22;46694;54.382;9.708;2024-03-23T10:44:40;10.60;99.90
60860;DHT22;46694;54.382;9.708;2024-03-23T10:47:06;10.80;99.90
60860;DHT22;46694;54.382;9.708;2024-03-23T10:49:33;10.80;99.90
60860;DHT22;46694;54.382;9.708;2024-03-23T10:52:04;10.70;99.90
60860;DHT22;46694;54.382;9.708;2024-03-23T10:54:31;10.60;99.90
60860;DHT22;46694;54.382;9.708;2024-03-23T10:57:08;10.80;99.90
60860;DHT22;46694;54.382;9.708;2024-03-23T10:59:40;11.00;99.90
60860;DHT22;46694;54.382;9.708;2024-03-23T11:02:06;11.20;99.90
60860;DHT22;46694;54.382;9.708;2024-03-23T11:04:38;11.20;99.90
60860;DHT22;46694;54.382;9.708;2024-03-23T11:09:54;10.40;99.90
60860;DHT22;46694;54.382;9.708;2024-03-23T11:14:50;9.70;99.90
60860;DHT22;46694;54.382;9.708;2024-03-23T11:17:20;9.40;99.90
60860;DHT22;46694;54.382;9.708;2024-03-23T11:19:54;9.30;99.90
60860;DHT22;46694;54.382;9.708;2024-03-23T11:22:44;9.10;99.90
60860;DHT22;46694;54.382;9.708;2024-03-23T11:25:23;8.90;99.90
60860;DHT22;46694;54.382;9.708;2024-03-23T11:27:53;8.70;99.90
60860;DHT22;46694;54.382;9.708;2024-03-23T11:30:27;8.70;99.90
60860;DHT22;46694;54.382;9.708;2024-03-23T11:32:57;8.70;99.90
60860;DHT22;46694;54.382;9.708;2024-03-23T11:35:39;8.90;99.90
60860;DHT22;46694;54.382;9.708;2024-03-23T11:38:09;9.20;99.90
60860;DHT22;46694;54.382;9.708;2024-03-23T11:40:42;9.60;99.90
60860;DHT22;46694;54.382;9.708;2024-03-23T11:43:14;10.00;99.90
60860;DHT22;46694;54.382;9.708;2024-03-23T11:45:49;10.30;99.90
60860;DHT22;46694;54.382;9.708;2024-03-23T11:48:20;10.60;99.90
60860;DHT22;46694;54.382;9.708;2024-03-23T11:50:56;10.70;99.90
60860;DHT22;46694;54.382;9.708;2024-03-23T11:53:25;10.70;99.90
60860;DHT22;46694;54.382;9.708;2024-03-23T11:55:57;10.60;99.90
60860;DHT22;46694;54.382;9.708;2024-03-23T11:58:25;10.40;99.90
60860;DHT22;46694;54.382;9.708;2024-03-23T12:00:57;10.20;99.90
60860;DHT22;46694;54.382;9.708;2024-03-23T12:03:31;10.00;99.90
60860;DHT22;46694;54.382;9.708;2024-03-23T12:06:00;10.00;99.90
60860;DHT22;46694;54.382;9.708;2024-03-23T12:08:31;9.90;99.90
60860;DHT22;46694;54.382;9.708;2024-03-23T12:11:12;9.90;99.90
60860;DHT22;46694;54.382;9.708;2024-03-23T12:13:43;10.00;99.90
60860;DHT22;46694;54.382;9.708;2024-03-23T12:16:21;10.00;99.90
60860;DHT22;46694;54.382;9.708;2024-03-23T12:18:50;10.20;99.90
60860;DHT22;46694;54.382;9.708;2024-03-23T12:21:19;10.30;99.90
60860;DHT22;46694;54.382;9.708;2024-03-23T12:23:44;10.30;99.90
60860;DHT22;46694;54.382;9.708;2024-03-23T12:26:12;10.40;99.90
60860;DHT22;46694;54.382;9.708;2024-03-23T12:28:39;10.40;99.90
60860;DHT22;46694;54.382;9.708;2024-03-23T12:31:05;10.40;99.90
60860;DHT22;46694;54.382;9.708;2024-03-23T12:33:31;10.40;99.90
60860;DHT22;46694;54.382;9.708;2024-03-23T12:35:57;10.50;99.90
60860;DHT22;46694;54.382;9.708;2024-03-23T12:38:23;10.70;99.90
60860;DHT22;46694;54.382;9.708;2024-03-23T12:40:49;10.90;99.90
60860;DHT22;46694;54.382;9.708;2024-03-23T12:43:16;11.00;99.90
60860;DHT22;46694;54.382;9.708;2024-03-23T12:45:49;11.10;99.90
60860;DHT22;46694;54.382;9.708;2024-03-23T12:48:15;11.10;99.90
60860;DHT22;46694;54.382;9.708;2024-03-23T12:50:41;11.20;99.90
60860;DHT22;46694;54.382;9.708;2024-03-23T12:53:07;11.30;99.90
60860;DHT22;46694;54.382;9.708;2024-03-23T12:55:36;11.40;99.90
60860;DHT22;46694;54.382;9.708;2024-03-23T12:58:02;11.50;99.90
60860;DHT22;46694;54.382;9.708;2024-03-23T13:00:28;11.60;99.90
60860;DHT22;46694;54.382;9.708;2024-03-23T13:02:54;11.60;99.90
60860;DHT22;46694;54.382;9.708;2024-03-23T13:05:20;11.50;99.90
60860;DHT22;46694;54.382;9.708;2024-03-23T13:07:46;11.00;99.90
60860;DHT22;46694;54.382;9.708;2024-03-23T13:10:11;10.70;99.90
60860;DHT22;46694;54.382;9.708;2024-03-23T13:12:37;10.20;99.90
60860;DHT22;46694;54.382;9.708;2024-03-23T13:15:03;9.70;99.90
60860;DHT22;46694;54.382;9.708;2024-03-23T13:17:30;9.40;99.90
60860;DHT22;46694;54.382;9.708;2024-03-23T13:19:55;9.10;99.90
60860;DHT22;46694;54.382;9.708;2024-03-23T13:22:21;8.90;99.90
60860;DHT22;46694;54.382;9.708;2024-03-23T13:24:47;8.90;99.90
60860;DHT22;46694;54.382;9.708;2024-03-23T13:27:13;9.00;99.90
60860;DHT22;46694;54.382;9.708;2024-03-23T13:29:39;9.00;99.90
60860;DHT22;46694;54.382;9.708;2024-03-23T13:32:05;9.10;99.90
60860;DHT22;46694;54.382;9.708;2024-03-23T13:34:32;9.20;99.90
60860;DHT22;46694;54.382;9.708;2024-03-23T13:37:00;9.20;99.90
60860;DHT22;46694;54.382;9.708;2024-03-23T13:39:26;9.20;99.90
60860;DHT22;46694;54.382;9.708;2024-03-23T13:41:55;9.30;99.90
60860;DHT22;46694;54.382;9.708;2024-03-23T13:44:21;9.50;99.90
60860;DHT22;46694;54.382;9.708;2024-03-23T13:46:47;9.60;99.90
60860;DHT22;46694;54.382;9.708;2024-03-23T13:49:33;9.70;99.90
60860;DHT22;46694;54.382;9.708;2024-03-23T13:51:59;9.80;99.90
60860;DHT22;46694;54.382;9.708;2024-03-23T13:54:26;9.90;99.90
60860;DHT22;46694;54.382;9.708;2024-03-23T13:56:53;9.80;99.90
60860;DHT22;46694;54.382;9.708;2024-03-23T13:59:20;9.80;99.90
60860;DHT22;46694;54.382;9.708;2024-03-23T14:01:48;9.70;99.90
60860;DHT22;46694;54.382;9.708;2024-03-23T14:04:14;9.60;99.90
60860;DHT22;46694;54.382;9.708;2024-03-23T14:06:44;9.50;99.90
60860;DHT22;46694;54.382;9.708;2024-03-23T14:09:39;9.40;99.90
60860;DHT22;46694;54.382;9.708;2024-03-23T14:12:04;9.40;99.90
60860;DHT22;46694;54.382;9.708;2024-03-23T14:14:32;9.40;99.90
60860;DHT22;46694;54.382;9.708;2024-03-23T14:16:58;9.40;99.90
60860;DHT22;46694;54.382;9.708;2024-03-23T14:19:24;9.40;99.90
60860;DHT22;46694;54.382;9.708;2024-03-23T14:21:50;9.40;99.90
60860;DHT22;46694;54.382;9.708;2024-03-23T14:24:16;9.40;99.90
60860;DHT22;46694;54.382;9.708;2024-03-23T14:26:42;9.30;99.90
60860;DHT22;46694;54.382;9.708;2024-03-23T14:29:08;9.30;99.90
60860;DHT22;46694;54.382;9.708;2024-03-23T14:31:34;9.20;99.90
60860;DHT22;46694;54.382;9.708;2024-03-23T14:34:00;9.00;99.90
60860;DHT22;46694;54.382;9.708;2024-03-23T14:36:26;8.90;99.90
60860;DHT22;46694;54.382;9.708;2024-03-23T14:38:53;8.90;99.90
60860;DHT22;46694;54.382;9.708;2024-03-23T14:41:18;8.90;99.90
60860;DHT22;46694;54.382;9.708;2024-03-23T14:43:44;8.90;99.90
60860;DHT22;46694;54.382;9.708;2024-03-23T14:46:16;8.80;99.90
60860;DHT22;46694;54.382;9.708;2024-03-23T14:48:43;8.80;99.90
60860;DHT22;46694;54.382;9.708;2024-03-23T14:51:34;8.80;99.90
60860;DHT22;46694;54.382;9.708;2024-03-23T14:54:00;8.80;99.90
60860;DHT22;46694;54.382;9.708;2024-03-23T14:56:26;8.70;99.90
60860;DHT22;46694;54.382;9.708;2024-03-23T14:58:52;8.60;99.90
60860;DHT22;46694;54.382;9.708;2024-03-23T15:01:19;8.50;99.90
60860;DHT22;46694;54.382;9.708;2024-03-23T15:03:44;8.50;99.90
60860;DHT22;46694;54.382;9.708;2024-03-23T15:06:10;8.40;99.90
60860;DHT22;46694;54.382;9.708;2024-03-23T15:08:36;8.40;99.90
60860;DHT22;46694;54.382;9.708;2024-03-23T15:11:03;8.40;99.90
60860;DHT22;46694;54.382;9.708;2024-03-23T15:13:36;8.40;99.90
60860;DHT22;46694;54.382;9.708;2024-03-23T15:16:03;8.50;99.90
60860;DHT22;46694;54.382;9.708;2024-03-23T15:18:34;8.50;99.90
60860;DHT22;46694;54.382;9.708;2024-03-23T15:21:02;8.60;99.90
60860;DHT22;46694;54.382;9.708;2024-03-23T15:23:29;8.70;99.90
60860;DHT22;46694;54.382;9.708;2024-03-23T15:25:56;8.70;99.90
60860;DHT22;46694;54.382;9.708;2024-03-23T15:28:26;8.80;99.90
60860;DHT22;46694;54.382;9.708;2024-03-23T15:31:09;8.80;99.90
60860;DHT22;46694;54.382;9.708;2024-03-23T15:33:35;8.80;99.90
60860;DHT22;46694;54.382;9.708;2024-03-23T15:36:02;8.80;99.90
60860;DHT22;46694;54.382;9.708;2024-03-23T15:38:29;8.80;99.90
60860;DHT22;46694;54.382;9.708;2024-03-23T15:40:55;8.70;99.90
60860;DHT22;46694;54.382;9.708;2024-03-23T15:43:21;8.70;99.90
60860;DHT22;46694;54.382;9.708;2024-03-23T15:45:56;8.60;99.90
60860;DHT22;46694;54.382;9.708;2024-03-23T15:48:25;8.60;99.90
60860;DHT22;46694;54.382;9.708;2024-03-23T15:51:02;8.50;99.90
60860;DHT22;46694;54.382;9.708;2024-03-23T15:53:31;8.50;99.90
60860;DHT22;46694;54.382;9.708;2024-03-23T15:55:59;8.60;99.90
60860;DHT22;46694;54.382;9.708;2024-03-23T15:58:29;8.60;99.90
60860;DHT22;46694;54.382;9.708;2024-03-23T16:01:00;8.50;99.90
60860;DHT22;46694;54.382;9.708;2024-03-23T16:03:27;8.60;99.90
60860;DHT22;46694;54.382;9.708;2024-03-23T16:05:55;8.50;99.90
60860;DHT22;46694;54.382;9.708;2024-03-23T16:08:22;8.50;99.90
60860;DHT22;46694;54.382;9.708;2024-03-23T16:10:49;8.50;99.90
60860;DHT22;46694;54.382;9.708;2024-03-23T16:13:16;8.40;99.90
60860;DHT22;46694;54.382;9.708;2024-03-23T16:15:42;8.30;99.90
60860;DHT22;46694;54.382;9.708;2024-03-23T16:18:08;8.20;99.90
60860;DHT22;46694;54.382;9.708;2024-03-23T16:20:33;8.20;99.90
60860;DHT22;46694;54.382;9.708;2024-03-23T16:23:00;8.20;99.90
60860;DHT22;46694;54.382;9.708;2024-03-23T16:25:26;8.20;99.90
60860;DHT22;46694;54.382;9.708;2024-03-23T16:27:53;8.20;99.90
60860;DHT22;46694;54.382;9.708;2024-03-23T16:30:19;8.20;99.90
60860;DHT22;46694;54.382;9.708;2024-03-23T16:32:46;8.20;99.90
60860;DHT22;46694;54.382;9.708;2024-03-23T16:35:13;8.40;99.90
60860;DHT22;46694;54.382;9.708;2024-03-23T16:37:39;8.40;99.90
60860;DHT22;46694;54.382;9.708;2024-03-23T16:40:06;8.50;99.90
60860;DHT22;46694;54.382;9.708;2024-03-23T16:42:34;8.50;99.90
60860;DHT22;46694;54.382;9.708;2024-03-23T16:45:01;8.50;99.90
60860;DHT22;46694;54.382;9.708;2024-03-23T16:47:28;8.40;99.90
60860;DHT22;46694;54.382;9.708;2024-03-23T16:49:54;8.40;99.90
60860;DHT22;46694;54.382;9.708;2024-03-23T16:52:19;8.30;99.90